• Join FlightAware (Why Join?)
  • Login
  • US Flag 
08:04AM EDT


 

Airport Tracker/Info


-or-


 

Live Flight TrackerFlight Track Log ✈ SWA3625 ✈ 27-May-2013 ✈ KLAS - KPHX

Flight Track Log - Related Links

Times and Time Zones

All times are in EDT time to prevent confusion due to time zone crossing. See the SWA3625 flight status page for this flight to view local times or setup timezone preferences in your user account.

Time Position Orientation Groundspeed Altitude Reporting Facility
EDT Latitude Longitude Course Direction KTS MPH feet Rate Location/Type
12:34AM 36.0756 -115.1658 269° West 146 168 3,200  Level Los Angeles Center
12:34AM 36.0747 -115.2219 269° West 190 219 4,600 1,620 Climbing Los Angeles Center
12:36AM 36.0239 -115.2758 221° Southwest 264 304 6,500 2,160 Climbing Los Angeles Center
12:37AM 35.9511 -115.2386 158° South 300 345 9,500 2,100 Climbing Los Angeles Center
12:38AM 35.8817 -115.1461 133° Southeast 310 357 11,500 2,100 Climbing Los Angeles Center
12:39AM 35.8722 -115.0136 95° East 363 418 14,200 2,640 Climbing Los Angeles Center
12:40AM 35.8669 -114.8683 93° East 402 463 17,000 2,820 Climbing Los Angeles Center
12:41AM 35.8614 -114.7181 93° East 437 503 20,100 2,820 Climbing Los Angeles Center
12:42AM 35.8417 -114.5661 99° East 454 522 22,800 2,700 Climbing Los Angeles Center
12:43AM 35.7581 -114.4061 123° Southeast 461 531 25,700 2,700 Climbing Los Angeles Center
12:44AM 35.6869 -114.2761 124° Southeast 459 528 28,400 1,620 Climbing Los Angeles Center
12:45AM 35.6200 -114.1536 124° Southeast 469 540 29,000 240 Climbing Los Angeles Center
12:46AM 35.5481 -114.0192 123° Southeast 475 547 29,000  Level Los Angeles Center
12:47AM 35.4764 -113.8864 124° Southeast 473 544 29,000  Level Los Angeles Center
12:48AM 35.3908 -113.7283 124° Southeast 469 540 29,000  Level Los Angeles Center
12:49AM 35.3206 -113.5986 124° Southeast 463 533 29,000  Level Los Angeles Center
12:50AM 35.2503 -113.4686 123° Southeast 463 533 29,000  Level Los Angeles Center
12:51AM 35.1803 -113.3411 124° Southeast 459 528 29,000  Level Los Angeles Center
12:52AM 35.1239 -113.2397 124° Southeast 459 528 29,000  Level Albuquerque Center
12:53AM 35.0556 -113.1125 123° Southeast 457 526 29,000  Level Albuquerque Center
12:54AM 34.9617 -112.9711 129° Southeast 448 516 29,000  Level Albuquerque Center
12:55AM 34.8606 -112.8742 142° Southeast 459 528 29,000  Level Albuquerque Center
12:56AM 34.7564 -112.7739 142° Southeast 474 545 29,000 -60 Level Albuquerque Center
12:57AM 34.6519 -112.6731 142° Southeast 480 552 28,900 -1,320 Descending Albuquerque Center
12:58AM 34.5489 -112.5750 142° Southeast 477 549 26,400 -2,580 Descending Albuquerque Center
12:59AM 34.4444 -112.4756 142° Southeast 459 528 23,700 -2,580 Descending Albuquerque Center
01:00AM 34.3486 -112.3858 142° Southeast 443 510 21,200 -2,460 Descending Albuquerque Center
01:01AM 34.2581 -112.2986 141° Southeast 424 488 18,800 -2,400 Descending Albuquerque Center
01:02AM 34.1706 -112.2164 142° Southeast 404 465 16,400 -1,440 Descending Albuquerque Center
01:03AM 34.0872 -112.1417 143° Southeast 379 436 15,900 -900 Descending Albuquerque Center
01:04AM 33.9858 -112.1100 165° South 377 434 14,600 -1,800 Descending Albuquerque Center
01:05AM 33.8867 -112.0856 168° South 369 425 12,300 -2,220 Descending Albuquerque Center
01:06AM 33.7906 -112.0608 168° South 359 413 10,200 -1,140 Descending Albuquerque Center
01:07AM 33.6861 -112.0400 171° South 315 362 10,000 -600 Descending Albuquerque Center
01:08AM 33.6089 -112.0269 172° South 284 327 9,100 -900 Descending Albuquerque Center
01:09AM 33.5453 -111.9964 158° South 253 291 8,200 -1,140 Descending Albuquerque Center
01:10AM 33.5275 -111.9172 105° East 260 299 6,900 -1,320 Descending Albuquerque Center
01:11AM 33.5258 -111.8339 91° East 253 291 5,600 -1,200 Descending Albuquerque Center
01:12AM 33.4669 -111.8158 166° South 230 265 4,500 -960 Descending Albuquerque Center
01:13AM 33.4403 -111.8642 237° Southwest 169 194 3,700 -1,080 Descending Albuquerque Center
01:14AM 33.4333 -111.9167 261° West 141 162 2,500 -1,080 Descending Phoenix TRACON
01:15AM 33.4333 -111.9500 270° West 129 148 1,800 -780 Descending Phoenix TRACON